Scot Leipzig — 9HA4096 — position and weather

sailwx.info

Track history (hours):
 
Tides and Currents Weather Stations Pressure Air Temp Water Temp Dewpoint Dewpoint Depression Visibility Wind Speed Wind Dir Waves Ship Positions

Scot Leipzig

Last reported at 2018-Feb-18 02:42 UTC. Time now 2018-Feb-19 14:19 UTC.
Position N 25°42' W 079°31'.

Length 117 m; draft 7.4 m.

Type: Ship (hazmat cat A). MMSI: 249080000.

Date/timePositionNaut miles runAvg speedWind from/ knotsBaromVisibWave heightAir tempDewpointWater temp
2018-Feb-18 02:42N 25°42' W 079°31'311.7
2018-Feb-18 02:27N 25°45' W 079°30'2412.1
2018-Feb-18 00:28N 26°07' W 079°20'  
2018-Feb-09 00:30N 36°10' W 026°07'713.3
2018-Feb-09 00:00N 36°13' W 025°60'1313.3
2018-Feb-08 23:00N 36°19' W 025°45'3313.4
2018-Feb-08 20:30N 36°34' W 025°08'713.5
2018-Feb-08 20:00N 36°37' W 025°00'2613.2
2018-Feb-08 18:00N 36°51' W 024°32'3413.5
2018-Feb-08 15:30N 37°15' W 024°03'1413.7
2018-Feb-08 14:30N 37°24' W 023°50'  
Track history (hours):
 
Tides and Currents Weather Stations Pressure Air Temp Water Temp Dewpoint Dewpoint Depression Visibility Wind Speed Wind Dir Waves Ship Positions

Scot Leipzig

Last reported at 2018-Feb-18 02:42 UTC. Time now 2018-Feb-19 14:19 UTC.
Position N 25°42' W 079°31'.

Length 117 m; draft 7.4 m.

Type: Ship (hazmat cat A). MMSI: 249080000.

Date/timePositionNaut miles runAvg speedWind from/ knotsBaromVisibWave heightAir tempDewpointWater temp
2018-Feb-18 02:42N 25°42' W 079°31'311.7
2018-Feb-18 02:27N 25°45' W 079°30'2412.1
2018-Feb-18 00:28N 26°07' W 079°20'  
2018-Feb-09 00:30N 36°10' W 026°07'713.3
2018-Feb-09 00:00N 36°13' W 025°60'1313.3
2018-Feb-08 23:00N 36°19' W 025°45'3313.4
2018-Feb-08 20:30N 36°34' W 025°08'713.5
2018-Feb-08 20:00N 36°37' W 025°00'2613.2
2018-Feb-08 18:00N 36°51' W 024°32'3413.5
2018-Feb-08 15:30N 37°15' W 024°03'1413.7
2018-Feb-08 14:30N 37°24' W 023°50'  

Dump ship's entire track history